Time;durP1;ratioP1;P1;durP2;ratioP2;P2;SDS_P1;SDS_P2;PMS_P1;PMS_P2;Temp;Humidity;BMP_temperature;BMP_pressure;BME280_temperature;BME280_humidity;BME280_pressure;Samples;Min_cycle;Max_cycle;Signal;HPM_P1;HPM_P2
2023/10/25 00:00:16;;;;;;;2.50;1.20;;;;;;;3.22;52.70;99541.50;5033109;28;20041;-61
2023/10/25 00:02:42;;;;;;;2.38;1.20;;;;;;;2.99;52.74;99507.41;5030178;28;20045;-60
2023/10/25 00:05:08;;;;;;;2.20;1.10;;;;;;;3.26;52.79;99539.75;5030038;28;20479;-61
2023/10/25 00:07:34;;;;;;;2.58;1.17;;;;;;;3.26;52.98;99539.75;5028763;28;20041;-62
2023/10/25 00:10:01;;;;;;;3.10;1.13;;;;;;;3.20;52.88;99532.94;5033064;28;20517;-61
2023/10/25 00:12:32;;;;;;;2.67;1.25;;;;;;;3.25;52.64;99545.75;5035384;28;20049;-60
2023/10/25 00:14:58;;;;;;;3.13;1.55;;;;;;;3.26;53.02;99540.59;5033815;28;20330;-60
2023/10/25 00:17:24;;;;;;;3.65;1.00;;;;;;;3.24;52.98;99539.78;5033365;28;20057;-59
2023/10/25 00:19:52;;;;;;;3.65;1.25;;;;;;;3.07;53.08;99510.78;5032597;28;20044;-60
2023/10/25 00:22:18;;;;;;;3.00;1.27;;;;;;;3.25;52.93;99545.75;5033565;28;20144;-60
2023/10/25 00:24:44;;;;;;;2.17;1.00;;;;;;;3.20;53.22;99545.78;5030920;28;20520;-63
2023/10/25 00:27:10;;;;;;;1.70;0.90;;;;;;;3.02;52.88;99524.53;5040417;28;20505;-60
2023/10/25 00:29:36;;;;;;;1.42;0.82;;;;;;;3.20;52.97;99550.06;5033957;28;20059;-60
2023/10/25 00:32:04;;;;;;;2.78;1.35;;;;;;;3.04;53.14;99522.78;5044632;28;20065;-62
2023/10/25 00:34:30;;;;;;;3.58;1.10;;;;;;;3.28;53.39;99553.44;5048714;28;20501;-62
2023/10/25 00:36:56;;;;;;;4.15;1.27;;;;;;;3.33;53.54;99559.41;5053086;28;20099;-62
2023/10/25 00:39:22;;;;;;;3.55;2.17;;;;;;;3.32;53.33;99561.13;5052115;28;20099;-62
2023/10/25 00:41:48;;;;;;;2.97;1.30;;;;;;;3.16;53.49;99527.84;5031561;28;20617;-62
2023/10/25 00:44:13;;;;;;;2.65;1.17;;;;;;;3.30;53.63;99562.84;5036837;28;20784;-61
2023/10/25 00:46:39;;;;;;;2.35;1.27;;;;;;;3.29;53.75;99557.72;5046812;28;20072;-62
2023/10/25 00:49:06;;;;;;;2.58;1.10;;;;;;;3.33;53.60;99567.97;5028650;28;20132;-60
2023/10/25 00:51:32;;;;;;;3.97;1.38;;;;;;;3.35;53.62;99563.66;5027630;28;20048;-61
2023/10/25 00:54:00;;;;;;;3.78;1.25;;;;;;;3.23;53.38;99537.22;5030732;28;20041;-61
2023/10/25 00:56:26;;;;;;;1.92;1.17;;;;;;;3.39;53.51;99567.94;5040285;28;20124;-61
2023/10/25 00:58:55;;;;;;;2.72;1.02;;;;;;;3.36;53.33;99572.22;5027923;28;20026;-61
2023/10/25 01:01:23;;;;;;;5.97;1.20;;;;;;;3.27;53.05;99562.00;5033746;28;20210;-61
2023/10/25 01:03:52;;;;;;;2.15;1.10;;;;;;;3.30;53.08;99561.97;5036190;28;20056;-61
2023/10/25 01:06:19;;;;;;;1.30;1.13;;;;;;;3.31;53.17;99564.53;5035461;28;20156;-60
2023/10/25 01:08:45;;;;;;;3.42;1.25;;;;;;;3.32;52.91;99557.69;5038307;28;20041;-60
2023/10/25 01:11:12;;;;;;;1.98;1.08;;;;;;;3.31;53.08;99559.41;5036007;28;20090;-60
2023/10/25 01:13:38;;;;;;;2.35;1.00;;;;;;;3.22;53.24;99538.06;5040075;28;20496;-61
2023/10/25 01:16:06;;;;;;;2.50;1.05;;;;;;;3.17;53.22;99532.97;5050130;28;20036;-61
2023/10/25 01:18:32;;;;;;;2.25;1.17;;;;;;;3.34;52.97;99564.53;5037317;28;20089;-60
2023/10/25 01:20:57;;;;;;;1.92;1.42;;;;;;;3.35;53.16;99562.78;5036777;28;20041;-61
2023/10/25 01:23:24;;;;;;;1.80;1.20;;;;;;;3.37;53.12;99561.09;5048099;28;20135;-61
2023/10/25 01:25:50;;;;;;;2.15;0.90;;;;;;;3.33;52.84;99551.69;5032039;28;20132;-60
2023/10/25 01:28:17;;;;;;;1.40;0.82;;;;;;;3.19;52.85;99533.78;5034015;28;20053;-59
2023/10/25 01:30:43;;;;;;;3.35;1.00;;;;;;;3.31;52.84;99559.41;5036011;28;20045;-61
2023/10/25 01:33:09;;;;;;;3.08;1.42;;;;;;;3.33;52.58;99560.25;5039397;28;20036;-61
2023/10/25 01:35:35;;;;;;;2.25;1.20;;;;;;;3.26;52.68;99548.31;5031264;28;20041;-60
2023/10/25 01:38:02;;;;;;;1.95;1.00;;;;;;;3.19;52.84;99550.94;5034465;28;20076;-61
2023/10/25 01:40:28;;;;;;;2.35;1.23;;;;;;;3.30;52.94;99562.84;5047718;28;20041;-61
2023/10/25 01:42:55;;;;;;;1.77;1.02;;;;;;;3.13;52.73;99544.13;5046886;28;20548;-63
2023/10/25 01:45:27;;;;;;;1.90;1.17;;;;;;;3.27;53.00;99572.28;5031029;28;20045;-60
2023/10/25 01:47:53;;;;;;;2.75;1.05;;;;;;;3.28;52.86;99576.56;5034712;28;20559;-62
2023/10/25 01:50:19;;;;;;;2.72;1.10;;;;;;;3.29;52.57;99574.00;5032063;28;20037;-53
2023/10/25 01:52:47;;;;;;;1.75;1.10;;;;;;;3.30;52.56;99573.09;5028797;28;20048;-61
2023/10/25 01:55:14;;;;;;;2.70;1.23;;;;;;;3.30;52.69;99579.97;5028791;28;20041;-61
2023/10/25 01:57:42;;;;;;;2.60;1.15;;;;;;;3.32;52.47;99578.25;5032950;28;20162;-62
2023/10/25 02:00:08;;;;;;;4.40;1.13;;;;;;;3.30;52.65;99567.97;5013818;28;20074;-60
2023/10/25 02:02:42;;;;;;;3.67;1.30;;;;;;;3.29;52.50;99579.13;5031237;28;20432;-60
2023/10/25 02:05:08;;;;;;;2.22;1.10;;;;;;;3.21;52.43;99570.59;5046647;28;20074;-61
2023/10/25 02:07:35;;;;;;;4.43;1.00;;;;;;;3.28;52.49;99579.13;5028748;28;20045;-60
2023/10/25 02:10:01;;;;;;;1.10;0.80;;;;;;;3.28;52.24;99579.13;5047795;28;20263;-60
2023/10/25 02:12:37;;;;;;;2.30;1.15;;;;;;;3.07;52.08;99546.75;5036136;28;20497;-60
2023/10/25 02:15:03;;;;;;;2.45;0.90;;;;;;;3.27;52.07;99573.16;5034713;28;20090;-60
2023/10/25 02:17:33;;;;;;;3.88;1.10;;;;;;;3.28;52.19;99581.72;5028863;28;20036;-60
2023/10/25 02:19:59;;;;;;;2.40;1.10;;;;;;;3.27;52.34;99582.56;5043876;28;20054;-59
2023/10/25 02:22:24;;;;;;;2.25;1.00;;;;;;;3.23;52.26;99573.19;5042713;28;20068;-61
2023/10/25 02:24:51;;;;;;;1.45;1.02;;;;;;;3.25;52.51;99569.72;5035498;28;20056;-60
2023/10/25 02:27:17;;;;;;;3.67;1.58;;;;;;;3.26;52.28;99565.44;5032700;28;20045;-61
2023/10/25 02:29:43;;;;;;;2.20;0.90;;;;;;;3.26;52.26;99568.88;5033316;28;20531;-60
2023/10/25 02:32:10;;;;;;;3.72;1.00;;;;;;;3.25;51.70;99568.88;5051027;28;20037;-62
2023/10/25 02:34:38;;;;;;;4.93;1.52;;;;;;;3.24;52.09;99569.75;5058977;28;20041;-60
2023/10/25 02:37:05;;;;;;;3.67;1.20;;;;;;;3.25;52.08;99577.44;5034581;28;20559;-61
2023/10/25 02:39:31;;;;;;;4.43;1.33;;;;;;;3.19;52.26;99569.75;5034843;28;20041;-61
2023/10/25 02:41:57;;;;;;;2.80;1.20;;;;;;;2.96;51.96;99523.69;5034821;28;20706;-60
2023/10/25 02:44:23;;;;;;;2.55;1.20;;;;;;;3.20;51.75;99574.03;5034795;28;20040;-60
2023/10/25 02:46:49;;;;;;;2.75;1.08;;;;;;;3.20;51.82;99574.03;5032034;28;20563;-60
2023/10/25 02:49:15;;;;;;;3.60;1.10;;;;;;;3.17;52.05;99574.06;5030523;28;20065;-61
2023/10/25 02:51:41;;;;;;;1.80;1.30;;;;;;;3.19;51.91;99566.38;5032383;28;20321;-60
2023/10/25 02:54:07;;;;;;;2.03;1.33;;;;;;;3.16;52.13;99571.50;5033797;28;20037;-61
2023/10/25 02:56:34;;;;;;;2.95;1.15;;;;;;;3.18;52.29;99578.34;5032574;28;20080;-61
2023/10/25 02:59:00;;;;;;;2.83;1.35;;;;;;;3.18;52.32;99586.06;5035191;28;20102;-59
2023/10/25 03:01:26;;;;;;;5.45;1.17;;;;;;;3.19;52.10;99581.78;5034673;28;20045;-60
2023/10/25 03:03:52;;;;;;;6.05;1.50;;;;;;;3.01;52.08;99551.06;5034461;28;20410;-61
2023/10/25 03:06:19;;;;;;;3.50;1.48;;;;;;;3.01;52.04;99553.63;5037133;28;20485;-60
2023/10/25 03:08:46;;;;;;;2.38;1.20;;;;;;;3.03;51.65;99557.91;5036841;28;20118;-61
2023/10/25 03:11:12;;;;;;;2.13;1.33;;;;;;;3.21;51.59;99600.59;5042192;28;20055;-61
2023/10/25 03:13:38;;;;;;;2.47;1.23;;;;;;;3.01;51.36;99572.47;5017642;28;20447;-61
2023/10/25 03:16:05;;;;;;;5.15;1.30;;;;;;;3.13;51.57;99599.78;5033026;28;20064;-61
2023/10/25 03:18:32;;;;;;;1.95;1.25;;;;;;;3.18;51.54;99605.75;5030812;28;20477;-61
2023/10/25 03:21:01;;;;;;;2.25;1.00;;;;;;;3.01;51.40;99571.59;5040136;28;20137;-61
2023/10/25 03:23:31;;;;;;;5.55;1.00;;;;;;;3.09;51.38;99603.25;5032475;28;20037;-61
2023/10/25 03:26:03;;;;;;;1.50;1.10;;;;;;;3.05;51.29;99604.94;5034378;28;20424;-61
2023/10/25 03:28:29;;;;;;;1.88;1.10;;;;;;;2.99;51.10;99608.41;5032981;28;20073;-61
2023/10/25 03:30:54;;;;;;;5.53;1.20;;;;;;;2.95;51.02;99609.28;5038306;28;20500;-61
2023/10/25 03:33:20;;;;;;;2.72;1.50;;;;;;;2.96;51.16;99612.72;5033935;28;20127;-61
2023/10/25 03:35:55;;;;;;;3.30;1.52;;;;;;;2.81;51.37;99597.38;5026087;28;20049;-62
2023/10/25 03:38:22;;;;;;;8.25;1.85;;;;;;;3.01;51.39;99616.09;5045657;28;20064;-61
2023/10/25 03:40:59;;;;;;;4.18;1.23;;;;;;;3.03;51.56;99616.13;5036020;28;20094;-62
2023/10/25 03:43:25;;;;;;;4.60;1.27;;;;;;;2.98;51.30;99611.00;5047890;28;20067;-61
2023/10/25 03:45:51;;;;;;;2.38;1.00;;;;;;;2.97;51.34;99615.28;5015489;28;20051;-61
2023/10/25 03:48:17;;;;;;;4.55;1.65;;;;;;;2.77;51.56;99588.00;5031994;28;20047;-60
2023/10/25 03:50:43;;;;;;;4.35;1.20;;;;;;;2.72;51.45;99577.72;5051651;28;20041;-62
2023/10/25 03:53:09;;;;;;;5.82;1.35;;;;;;;2.91;51.00;99615.31;5048608;28;20481;-61
2023/10/25 03:55:35;;;;;;;4.85;1.23;;;;;;;2.77;50.49;99604.25;5046407;28;20045;-61
2023/10/25 03:58:01;;;;;;;4.05;1.33;;;;;;;2.87;50.88;99621.31;5034448;28;20045;-63
2023/10/25 04:00:27;;;;;;;2.70;1.20;;;;;;;2.82;50.29;99627.34;5049031;28;20045;-61
2023/10/25 04:02:53;;;;;;;2.45;1.42;;;;;;;2.68;50.42;99604.28;5030751;28;20075;-60
2023/10/25 04:05:19;;;;;;;2.25;1.20;;;;;;;2.83;50.15;99635.00;5032130;28;20833;-62
2023/10/25 04:07:45;;;;;;;2.78;1.15;;;;;;;2.83;50.37;99636.72;5030389;28;20037;-61
2023/10/25 04:10:11;;;;;;;5.15;1.50;;;;;;;2.82;50.38;99641.03;5034274;28;20041;-61
2023/10/25 04:12:37;;;;;;;4.50;1.35;;;;;;;2.84;50.59;99644.41;5033272;28;20559;-61
2023/10/25 04:15:03;;;;;;;2.08;1.20;;;;;;;2.81;50.74;99647.03;5033405;28;20045;-62
2023/10/25 04:17:31;;;;;;;3.92;1.25;;;;;;;2.82;50.73;99653.88;5032391;28;20127;-61
2023/10/25 04:19:57;;;;;;;6.70;1.50;;;;;;;2.83;51.29;99654.69;5040872;28;20124;-61
2023/10/25 04:22:22;;;;;;;4.35;1.35;;;;;;;2.90;51.27;99666.66;5034536;28;20041;-62
2023/10/25 04:24:48;;;;;;;8.38;2.30;;;;;;;2.90;51.29;99661.53;5047266;28;20076;-60
2023/10/25 04:27:14;;;;;;;3.20;1.67;;;;;;;2.88;51.39;99660.66;5031048;28;20595;-61
2023/10/25 04:29:40;;;;;;;3.72;1.67;;;;;;;2.85;51.65;99664.09;5030537;28;20135;-61
2023/10/25 04:32:06;;;;;;;8.23;3.30;;;;;;;2.86;51.90;99670.09;5033115;28;20128;-61
2023/10/25 04:34:32;;;;;;;7.68;3.03;;;;;;;2.89;51.71;99675.22;5032771;28;20056;-61
2023/10/25 04:36:58;;;;;;;5.63;2.05;;;;;;;2.88;51.85;99670.94;5048973;28;20512;-61
2023/10/25 04:39:24;;;;;;;3.95;1.52;;;;;;;2.89;51.82;99668.38;5047753;28;20045;-54
2023/10/25 04:41:50;;;;;;;3.20;1.27;;;;;;;2.87;51.56;99672.69;5031786;28;20057;-61
2023/10/25 04:44:15;;;;;;;3.88;1.58;;;;;;;2.85;51.52;99670.94;5033577;28;20073;-59
2023/10/25 04:46:41;;;;;;;2.40;1.25;;;;;;;2.79;51.05;99674.41;5030237;28;20437;-60
2023/10/25 04:49:07;;;;;;;2.90;1.50;;;;;;;2.80;51.17;99681.25;5027894;28;20045;-61
2023/10/25 04:51:33;;;;;;;2.47;1.38;;;;;;;2.84;51.37;99687.22;5032628;28;20037;-61
2023/10/25 04:53:59;;;;;;;3.80;1.52;;;;;;;2.83;51.10;99678.66;5030869;28;20473;-61
2023/10/25 04:56:25;;;;;;;5.75;1.73;;;;;;;2.85;51.27;99678.66;5032951;28;20118;-60
2023/10/25 04:58:51;;;;;;;6.68;2.72;;;;;;;2.92;51.49;99691.47;5032592;28;20171;-63
2023/10/25 05:01:17;;;;;;;3.55;1.73;;;;;;;2.92;51.64;99694.06;5031978;28;20046;-60
2023/10/25 05:03:44;;;;;;;3.50;1.50;;;;;;;2.97;51.38;99696.59;5032004;28;20041;-61
2023/10/25 05:06:11;;;;;;;3.25;1.80;;;;;;;3.02;51.19;99704.28;5047379;28;20052;-60
2023/10/25 05:08:37;;;;;;;2.70;1.63;;;;;;;2.99;51.62;99702.56;5047730;28;20098;-61
2023/10/25 05:11:04;;;;;;;6.05;1.70;;;;;;;2.99;51.65;99703.41;5028473;28;20045;-62
2023/10/25 05:13:31;;;;;;;4.85;1.83;;;;;;;3.01;51.84;99700.84;5041311;28;20406;-61
2023/10/25 05:15:57;;;;;;;10.13;2.00;;;;;;;3.03;51.95;99706.00;5028444;28;20453;-60
2023/10/25 05:18:25;;;;;;;7.90;2.58;;;;;;;3.03;51.97;99700.84;5040352;28;20075;-61
2023/10/25 05:20:58;;;;;;;9.88;2.03;;;;;;;3.03;51.87;99714.56;5029284;28;20033;-63
2023/10/25 05:23:31;;;;;;;7.65;1.90;;;;;;;3.06;51.93;99709.41;5031988;28;20042;-62
2023/10/25 05:26:00;;;;;;;11.23;1.83;;;;;;;3.07;51.71;99713.69;5032064;28;20034;-61
2023/10/25 05:28:26;;;;;;;6.32;2.00;;;;;;;3.07;51.69;99702.53;5034755;28;20421;-61
2023/10/25 05:30:55;;;;;;;6.60;2.00;;;;;;;3.07;51.59;99713.69;5047134;28;20133;-60
2023/10/25 05:33:23;;;;;;;3.42;1.30;;;;;;;3.08;51.56;99719.66;5032598;28;20454;-61
2023/10/25 05:35:49;;;;;;;6.35;2.10;;;;;;;3.07;51.79;99715.38;5047620;28;20037;-61
2023/10/25 05:38:15;;;;;;;13.32;2.10;;;;;;;3.06;51.51;99719.66;5045272;28;20094;-62
2023/10/25 05:40:41;;;;;;;9.73;2.10;;;;;;;3.09;51.63;99717.06;5040634;28;20539;-60
2023/10/25 05:43:14;;;;;;;8.15;2.88;;;;;;;3.08;51.61;99712.81;5041041;28;20198;-61
2023/10/25 05:45:42;;;;;;;13.40;2.47;;;;;;;3.17;51.69;99725.63;5040859;28;20049;-63
2023/10/25 05:48:09;;;;;;;12.55;4.22;;;;;;;3.21;51.96;99734.16;5028638;28;20056;-61
2023/10/25 05:50:36;;;;;;;8.65;2.63;;;;;;;3.04;52.05;99698.25;5032173;28;20179;-61
2023/10/25 05:53:03;;;;;;;11.27;3.47;;;;;;;3.18;52.00;99724.78;5046739;28;20034;-61
2023/10/25 05:55:29;;;;;;;5.93;2.75;;;;;;;3.10;52.09;99721.34;5049281;28;20064;-62
2023/10/25 05:57:55;;;;;;;3.88;2.38;;;;;;;3.02;51.65;99706.84;5031622;28;20144;-61
2023/10/25 06:00:22;;;;;;;7.53;2.55;;;;;;;3.09;51.81;99731.66;5047277;28;20139;-60
2023/10/25 06:02:49;;;;;;;4.25;1.80;;;;;;;3.05;51.38;99728.22;5047085;28;20821;-60
2023/10/25 06:05:18;;;;;;;4.50;1.70;;;;;;;3.07;51.23;99738.50;5028842;28;20073;-61
2023/10/25 06:07:45;;;;;;;6.50;2.10;;;;;;;3.08;51.21;99737.66;5029995;28;20164;-61
2023/10/25 06:10:11;;;;;;;5.25;1.92;;;;;;;3.09;51.35;99741.94;5032064;28;20045;-60
2023/10/25 06:12:40;;;;;;;4.40;2.17;;;;;;;3.13;51.33;99749.63;5024469;28;20053;-61
2023/10/25 06:15:06;;;;;;;3.60;2.10;;;;;;;3.15;51.37;99745.31;5034205;28;20038;-61
2023/10/25 06:17:33;;;;;;;14.77;3.28;;;;;;;3.16;51.38;99748.75;5031349;28;20051;-60
2023/10/25 06:19:59;;;;;;;9.35;3.45;;;;;;;3.18;51.34;99754.72;5030377;28;20044;-62
2023/10/25 06:22:25;;;;;;;7.25;2.67;;;;;;;3.05;51.31;99730.78;5039430;28;20114;-60
2023/10/25 06:24:51;;;;;;;4.90;2.40;;;;;;;3.19;51.25;99754.72;5030630;28;20041;-60
2023/10/25 06:27:17;;;;;;;5.85;2.15;;;;;;;3.23;50.71;99755.56;5036401;28;20049;-60
2023/10/25 06:29:43;;;;;;;7.97;2.63;;;;;;;3.24;51.20;99759.84;5042455;28;20033;-61
2023/10/25 06:32:09;;;;;;;8.88;2.72;;;;;;;3.24;50.97;99753.00;5039814;28;20053;-60
2023/10/25 06:34:35;;;;;;;3.80;2.00;;;;;;;3.24;51.03;99752.16;5043354;28;20041;-60
2023/10/25 06:37:01;;;;;;;5.63;2.05;;;;;;;3.26;51.15;99756.41;5027829;28;20044;-60
2023/10/25 06:39:27;;;;;;;7.85;1.92;;;;;;;3.27;50.85;99762.41;5041768;28;20402;-61
2023/10/25 06:41:53;;;;;;;5.97;2.10;;;;;;;3.19;50.93;99761.59;5046664;28;20056;-60
2023/10/25 06:44:20;;;;;;;5.95;1.92;;;;;;;2.98;50.75;99735.09;5027389;28;20045;-59
2023/10/25 06:46:46;;;;;;;8.57;2.47;;;;;;;3.16;50.68;99766.72;5034964;28;20041;-60
2023/10/25 06:49:12;;;;;;;9.23;3.30;;;;;;;2.94;50.72;99729.97;5038478;28;20044;-61
2023/10/25 06:51:38;;;;;;;3.15;1.80;;;;;;;3.13;50.14;99759.91;5064398;28;20052;-61
2023/10/25 06:54:05;;;;;;;7.22;2.42;;;;;;;3.09;50.41;99755.59;5051269;28;20064;-60
2023/10/25 06:56:31;;;;;;;8.77;2.30;;;;;;;2.98;50.56;99726.56;5051170;28;20428;-61
2023/10/25 06:58:57;;;;;;;10.43;2.42;;;;;;;3.22;50.21;99765.00;5048716;28;20052;-62
2023/10/25 07:01:26;;;;;;;4.28;2.15;;;;;;;3.25;50.42;99766.69;5052087;28;20418;-62
2023/10/25 07:03:56;;;;;;;4.75;2.05;;;;;;;3.10;50.08;99746.19;5047589;28;20044;-62
2023/10/25 07:06:22;;;;;;;6.63;1.73;;;;;;;3.29;49.91;99766.69;5065179;28;20500;-62
2023/10/25 07:08:49;;;;;;;3.78;1.55;;;;;;;3.34;49.96;99775.22;5053995;28;20167;-61
2023/10/25 07:11:14;;;;;;;4.45;1.98;;;;;;;3.40;49.96;99779.50;5033715;28;20075;-63
2023/10/25 07:13:41;;;;;;;6.25;2.40;;;;;;;3.40;49.82;99777.75;5044243;28;20025;-62
2023/10/25 07:16:07;;;;;;;3.88;2.10;;;;;;;3.45;50.08;99793.19;5048851;28;20064;-61
2023/10/25 07:18:33;;;;;;;4.18;2.13;;;;;;;3.47;49.90;99790.59;5031167;28;20045;-58
2023/10/25 07:20:59;;;;;;;5.30;1.90;;;;;;;3.49;49.66;99789.72;5054470;28;20036;-59
2023/10/25 07:23:25;;;;;;;9.57;2.03;;;;;;;3.50;49.87;99785.44;5053981;28;20090;-60
2023/10/25 07:25:52;;;;;;;5.95;2.10;;;;;;;3.52;49.69;99791.41;5057075;28;20044;-59
2023/10/25 07:28:17;;;;;;;5.68;1.90;;;;;;;3.24;49.46;99739.31;5047670;28;20598;-59
2023/10/25 07:30:43;;;;;;;3.67;2.17;;;;;;;3.49;49.50;99786.31;5041988;28;20037;-61
2023/10/25 07:33:10;;;;;;;3.70;2.17;;;;;;;3.40;49.26;99782.06;5046693;28;20048;-63
2023/10/25 07:35:36;;;;;;;4.38;1.80;;;;;;;3.37;49.17;99787.19;5055140;28;20788;-60
2023/10/25 07:38:02;;;;;;;3.17;1.88;;;;;;;3.38;48.96;99784.63;5051381;28;20040;-65
2023/10/25 07:40:28;;;;;;;8.10;2.80;;;;;;;3.42;49.25;99788.03;5037335;28;20065;-60
2023/10/25 07:42:54;;;;;;;4.57;2.35;;;;;;;3.44;48.99;99786.31;5056958;28;20072;-53
2023/10/25 07:45:20;;;;;;;8.95;2.30;;;;;;;3.31;49.39;99756.38;5043885;28;20047;-54
2023/10/25 07:47:46;;;;;;;4.40;2.45;;;;;;;3.56;48.98;99788.00;5034887;28;20124;-55
2023/10/25 07:50:17;;;;;;;7.13;2.25;;;;;;;3.54;48.93;99782.00;5040466;28;20183;-52
2023/10/25 07:52:45;;;;;;;13.20;2.90;;;;;;;3.63;49.10;99787.09;5037316;28;20056;-56
2023/10/25 07:55:11;;;;;;;6.82;2.50;;;;;;;3.66;49.16;99789.66;5045795;28;20041;-54
2023/10/25 07:57:37;;;;;;;5.88;2.45;;;;;;;3.42;48.90;99759.75;5021101;28;20536;-58
2023/10/25 08:00:04;;;;;;;5.20;2.55;;;;;;;3.61;48.90;99793.97;5039030;28;20584;-55
2023/10/25 08:02:38;;;;;;;12.93;3.00;;;;;;;3.63;48.92;99785.38;5039051;28;20049;-58
2023/10/25 08:05:05;;;;;;;11.70;3.58;;;;;;;3.69;48.60;99794.78;5046373;28;20049;-56
2023/10/25 08:07:31;;;;;;;10.60;3.00;;;;;;;3.52;48.86;99760.56;5058547;28;20041;-55
2023/10/25 08:09:58;;;;;;;5.82;2.40;;;;;;;3.73;48.83;99794.75;5061141;28;20041;-55
2023/10/25 08:12:24;;;;;;;9.30;2.97;;;;;;;3.60;48.57;99779.41;5044394;28;20873;-57
2023/10/25 08:14:49;;;;;;;4.97;2.53;;;;;;;3.54;48.73;99775.16;5036387;28;20048;-52
2023/10/25 08:17:16;;;;;;;5.63;2.33;;;;;;;3.68;48.84;99801.63;5026739;28;20071;-57
2023/10/25 08:19:41;;;;;;;5.32;1.92;;;;;;;3.70;49.01;99797.34;5034603;28;20048;-55
2023/10/25 08:22:08;;;;;;;4.35;2.67;;;;;;;3.71;48.69;99798.19;5034389;28;20041;-52
2023/10/25 08:24:35;;;;;;;6.00;2.50;;;;;;;3.71;48.86;99806.78;5039348;28;20073;-52
2023/10/25 08:27:00;;;;;;;8.60;2.58;;;;;;;3.75;48.69;99810.19;5033182;28;20041;-52
2023/10/25 08:29:26;;;;;;;9.40;2.40;;;;;;;3.71;48.51;99811.06;5035407;28;20032;-54
2023/10/25 08:31:52;;;;;;;3.95;2.00;;;;;;;3.40;48.48;99776.94;5032640;28;20033;-54
2023/10/25 08:34:18;;;;;;;6.13;2.28;;;;;;;3.60;48.50;99811.09;5026176;28;20059;-55
2023/10/25 08:36:44;;;;;;;6.07;2.83;;;;;;;3.57;48.47;99805.97;5034244;28;20052;-52
2023/10/25 08:39:10;;;;;;;4.07;2.10;;;;;;;3.53;48.32;99808.56;5035277;28;20041;-53
2023/10/25 08:41:38;;;;;;;6.63;2.75;;;;;;;3.44;48.48;99783.75;5027684;28;20041;-55
2023/10/25 08:44:05;;;;;;;6.78;2.30;;;;;;;3.57;48.36;99805.97;5033109;28;20144;-58
2023/10/25 08:46:33;;;;;;;3.00;2.03;;;;;;;3.39;48.21;99772.66;5053189;28;20049;-50
2023/10/25 08:48:59;;;;;;;4.13;2.13;;;;;;;3.58;48.45;99814.53;5031451;28;20103;-58
2023/10/25 08:51:25;;;;;;;2.58;1.90;;;;;;;3.60;48.49;99815.38;5032061;28;20065;-57
2023/10/25 08:53:53;;;;;;;6.35;1.80;;;;;;;3.57;48.16;99810.25;5034916;28;20041;-58
2023/10/25 08:56:19;;;;;;;4.85;1.92;;;;;;;3.47;47.91;99786.28;5031143;28;20044;-61
2023/10/25 08:58:45;;;;;;;4.40;2.42;;;;;;;3.70;48.21;99812.78;5035079;28;20068;-59
2023/10/25 09:01:11;;;;;;;11.95;2.58;;;;;;;3.57;47.88;99790.53;5055152;28;20538;-57
2023/10/25 09:03:40;;;;;;;6.65;2.10;;;;;;;3.73;48.08;99810.16;5048107;28;20097;-57
2023/10/25 09:06:07;;;;;;;;;;;;;;;3.78;48.02;99810.16;5045450;28;20048;-58
2023/10/25 09:08:34;;;;;;;6.97;2.88;;;;;;;3.79;47.75;99811.88;5045837;28;19959;-55
2023/10/25 09:11:02;;;;;;;9.10;2.22;;;;;;;3.80;47.62;99809.28;5042000;28;20053;-58
2023/10/25 09:13:33;;;;;;;6.80;2.22;;;;;;;3.91;47.63;99803.22;5032511;28;20040;-57
2023/10/25 09:16:13;;;;;;;5.00;2.10;;;;;;;3.92;47.49;99804.94;5046986;28;20040;-61
2023/10/25 09:18:39;;;;;;;3.30;1.90;;;;;;;3.91;47.18;99805.81;5053702;28;20171;-60
2023/10/25 09:21:06;;;;;;;5.95;2.30;;;;;;;3.95;47.24;99803.22;5015985;28;20056;-62
2023/10/25 09:23:35;;;;;;;4.22;2.08;;;;;;;3.84;47.07;99774.97;5040062;28;20582;-61
2023/10/25 09:26:04;;;;;;;5.88;1.70;;;;;;;4.13;46.79;99803.09;5044120;28;20040;-60
2023/10/25 09:28:30;;;;;;;5.57;1.90;;;;;;;4.21;46.45;99796.19;5036537;28;20147;-56
2023/10/25 09:30:58;;;;;;;4.20;1.48;;;;;;;4.27;46.44;99805.56;5048092;28;20047;-52
2023/10/25 09:33:28;;;;;;;3.40;1.52;;;;;;;4.37;46.10;99798.63;5033434;28;20033;-58
2023/10/25 09:35:56;;;;;;;2.58;1.40;;;;;;;4.38;45.30;99793.47;5031626;28;20045;-59
2023/10/25 09:38:22;;;;;;;2.55;1.40;;;;;;;4.14;45.33;99791.06;5050481;28;20045;-59
2023/10/25 09:40:51;;;;;;;4.45;1.70;;;;;;;4.09;45.70;99801.38;5045402;28;20032;-60
2023/10/25 09:43:24;;;;;;;1.33;1.10;;;;;;;4.08;45.43;99804.81;5032905;28;20037;-63
2023/10/25 09:45:54;;;;;;;3.28;1.40;;;;;;;3.87;45.29;99812.69;5033635;28;20040;-61
2023/10/25 09:48:21;;;;;;;1.80;1.30;;;;;;;3.60;45.47;99769.13;5047211;28;20044;-58
2023/10/25 09:51:34;;;;;;;3.42;1.30;;;;;;;3.75;45.63;99810.19;5049583;28;20040;-56
2023/10/25 09:54:11;;;;;;;2.47;1.30;;;;;;;3.62;45.68;99804.22;4960752;28;20087;-61
2023/10/25 09:56:37;;;;;;;2.28;1.33;;;;;;;3.71;45.60;99799.06;4946457;28;20053;-60
2023/10/25 09:59:05;;;;;;;3.33;1.40;;;;;;;3.77;45.60;99783.56;5014574;28;20065;-61
2023/10/25 10:01:31;;;;;;;5.63;2.53;;;;;;;3.74;45.51;99785.31;5042290;28;20045;-59
2023/10/25 10:04:30;;;;;;;5.10;1.25;;;;;;;3.86;45.68;99776.69;5031713;28;20109;-62
2023/10/25 10:07:11;;;;;;;3.55;2.00;;;;;;;3.95;45.83;99774.91;5035017;28;20461;-61
2023/10/25 10:10:07;;;;;;;3.35;1.70;;;;;;;4.06;45.72;99777.41;5050228;28;20044;-55
2023/10/25 10:12:33;;;;;;;4.20;1.92;;;;;;;4.12;45.61;99780.81;5023684;28;20052;-60
2023/10/25 10:14:59;;;;;;;5.53;1.55;;;;;;;4.13;45.69;99772.22;5035452;28;20045;-60
2023/10/25 10:17:26;;;;;;;2.78;1.65;;;;;;;3.84;45.17;99740.69;5033763;28;20041;-60
2023/10/25 10:19:52;;;;;;;3.70;1.80;;;;;;;4.06;45.37;99769.69;5012543;28;20053;-64
2023/10/25 10:22:19;;;;;;;5.60;1.90;;;;;;;4.14;46.03;99773.91;5029472;28;20036;-57
2023/10/25 10:24:49;;;;;;;4.57;1.40;;;;;;;4.22;45.73;99766.16;5058450;28;20124;-59
2023/10/25 10:27:27;;;;;;;2.65;1.70;;;;;;;4.26;45.66;99763.53;5039807;28;20140;-56
2023/10/25 10:29:53;;;;;;;4.07;1.55;;;;;;;4.24;45.17;99756.69;5059160;28;20071;-60
2023/10/25 10:32:19;;;;;;;5.05;1.90;;;;;;;4.15;44.90;99757.63;5049970;28;20040;-62
2023/10/25 10:34:57;;;;;;;2.65;1.58;;;;;;;4.14;44.93;99753.34;5054885;28;20082;-57
2023/10/25 10:37:25;;;;;;;4.22;1.90;;;;;;;4.21;45.00;99749.84;5051283;28;20049;-58
2023/10/25 10:39:57;;;;;;;4.40;1.55;;;;;;;4.28;45.28;99747.25;5052574;28;20044;-55
2023/10/25 10:42:40;;;;;;;6.38;1.65;;;;;;;4.23;45.16;99749.84;5044145;28;20186;-55
2023/10/25 10:45:18;;;;;;;5.28;1.73;;;;;;;4.16;45.14;99746.47;5055247;28;20057;-56
2023/10/25 10:47:55;;;;;;;8.77;2.42;;;;;;;4.19;44.93;99750.72;5034646;28;20148;-57
2023/10/25 10:50:23;;;;;;;4.00;1.88;;;;;;;4.23;45.41;99745.56;5032016;28;20190;-62
2023/10/25 10:52:50;;;;;;;5.43;1.60;;;;;;;4.28;45.12;99744.66;5040107;28;20033;-61
2023/10/25 10:55:20;;;;;;;6.15;1.58;;;;;;;4.31;45.35;99742.91;5050222;28;20071;-62
2023/10/25 10:57:46;;;;;;;6.30;1.95;;;;;;;4.34;45.79;99737.75;5037058;28;20602;-61
2023/10/25 11:00:16;;;;;;;13.55;2.58;;;;;;;4.41;45.75;99733.38;5037461;28;20055;-49
2023/10/25 11:02:47;;;;;;;5.45;2.10;;;;;;;4.16;45.46;99692.44;5031442;28;20124;-41
2023/10/25 11:05:15;;;;;;;15.02;2.25;;;;;;;4.23;45.31;99699.25;5043278;28;20146;-34
2023/10/25 11:07:42;;;;;;;9.65;2.13;;;;;;;4.54;45.76;99746.16;5059101;28;20042;-32
2023/10/25 11:10:10;;;;;;;5.72;2.10;;;;;;;4.52;45.29;99744.44;5052714;28;20842;-38
2023/10/25 11:12:37;;;;;;;3.25;1.90;;;;;;;4.54;45.65;99746.16;5061900;28;20028;-46
2023/10/25 11:39:35;;;;;;;2.22;1.40;;;;;;;4.37;45.54;99736.88;5031799;28;20100;-36
2023/10/25 11:42:04;;;;;;;4.97;1.75;;;;;;;4.36;45.20;99742.88;5031435;28;20049;-36
2023/10/25 11:44:30;;;;;;;5.90;1.95;;;;;;;4.12;45.48;99711.34;5028221;28;20038;-37
2023/10/25 11:46:58;;;;;;;6.45;2.50;;;;;;;4.16;45.46;99745.63;5026847;28;20056;-38
2023/10/25 11:49:25;;;;;;;4.03;1.42;;;;;;;4.04;45.33;99756.84;5042631;28;20064;-40
2023/10/25 11:51:53;;;;;;;3.78;1.50;;;;;;;3.94;45.58;99750.06;5041442;28;20045;-36
2023/10/25 11:54:19;;;;;;;6.15;1.65;;;;;;;3.99;45.81;99742.31;5050477;28;20167;-37
2023/10/25 11:56:45;;;;;;;6.75;2.35;;;;;;;4.07;46.06;99736.25;5040472;28;20058;-40
2023/10/25 11:59:11;;;;;;;4.13;1.90;;;;;;;4.19;45.61;99735.28;5040587;28;20045;-38
2023/10/25 12:01:36;;;;;;;4.88;2.00;;;;;;;4.15;45.82;99715.59;5030429;28;20868;-38
2023/10/25 12:04:02;;;;;;;5.78;1.63;;;;;;;4.26;45.68;99731.81;5032806;28;20052;-37
2023/10/25 12:06:28;;;;;;;4.18;1.90;;;;;;;4.29;45.73;99724.09;5030588;28;20052;-38